Time;durP1;ratioP1;P1;durP2;ratioP2;P2;SDS_P1;SDS_P2;PMS_P1;PMS_P2;Temp;Humidity;BMP_temperature;BMP_pressure;BME280_temperature;BME280_humidity;BME280_pressure;Samples;Min_cycle;Max_cycle;Signal;HPM_P1;HPM_P2
2022/10/10 00:01:41;;;;;;;6.15;3.95;;;;;;;;;;5118256;28;20227;-81
2022/10/10 00:04:09;;;;;;;7.13;4.47;;;;;;;;;;5117754;28;20265;-83
2022/10/10 00:06:36;;;;;;;4.53;3.65;;;;;;;;;;5117904;28;20242;-83
2022/10/10 00:09:05;;;;;;;5.80;3.60;;;;;;;;;;5117296;28;20235;-83
2022/10/10 00:11:33;;;;;;;2.70;2.28;;;;;;;;;;5117685;28;20287;-83
2022/10/10 00:14:00;;;;;;;2.35;2.10;;;;;;;;;;5117444;28;20195;-82
2022/10/10 00:16:28;;;;;;;3.42;2.53;;;;;;;;;;5118488;28;20290;-82
2022/10/10 00:18:57;;;;;;;2.42;2.22;;;;;;;;;;5117068;28;20223;-83
2022/10/10 00:21:24;;;;;;;2.03;1.85;;;;;;;;;;5117783;28;20227;-82
2022/10/10 00:23:52;;;;;;;2.33;1.88;;;;;;;;;;5117819;28;20282;-82
2022/10/10 00:26:19;;;;;;;2.67;2.40;;;;;;;;;;5117418;28;20815;-82
2022/10/10 00:28:47;;;;;;;2.75;2.25;;;;;;;;;;5116511;28;20611;-82
2022/10/10 00:31:15;;;;;;;2.05;1.95;;;;;;;;;;5117619;28;20609;-82
2022/10/10 00:33:42;;;;;;;2.70;2.22;;;;;;;;;;5117356;28;20206;-83
2022/10/10 00:36:11;;;;;;;1.73;1.60;;;;;;;;;;5117292;28;20310;-83
2022/10/10 00:38:39;;;;;;;1.90;1.70;;;;;;;;;;5117449;28;20216;-82
2022/10/10 00:41:07;;;;;;;1.65;1.42;;;;;;;;;;5116890;28;20287;-83
2022/10/10 00:43:35;;;;;;;1.95;1.65;;;;;;;;;;5116947;28;20196;-82
2022/10/10 00:46:02;;;;;;;1.48;1.38;;;;;;;;;;5117140;28;20586;-83
2022/10/10 00:48:32;;;;;;;1.67;1.58;;;;;;;;;;5117075;28;20224;-83
2022/10/10 00:51:04;;;;;;;2.13;1.98;;;;;;;;;;5117048;28;20199;-83
2022/10/10 00:53:38;;;;;;;2.72;1.83;;;;;;;;;;5117315;28;20194;-83
2022/10/10 00:56:06;;;;;;;2.75;2.25;;;;;;;;;;5117065;28;20779;-83
2022/10/10 00:58:34;;;;;;;2.55;2.35;;;;;;;;;;5116325;28;20606;-82
2022/10/10 01:01:02;;;;;;;3.58;2.83;;;;;;;;;;5116713;28;20278;-83
2022/10/10 01:03:30;;;;;;;3.67;2.80;;;;;;;;;;5117044;28;20345;-83
2022/10/10 01:05:57;;;;;;;3.88;3.58;;;;;;;;;;5116512;28;20314;-83
2022/10/10 01:08:25;;;;;;;5.45;4.13;;;;;;;;;;5116125;28;20210;-83
2022/10/10 01:11:18;;;;;;;4.15;3.35;;;;;;;;;;5116473;28;20238;-83
2022/10/10 01:13:55;;;;;;;3.03;2.72;;;;;;;;;;5117097;28;20194;-83
2022/10/10 01:16:29;;;;;;;2.83;2.22;;;;;;;;;;5116899;28;20194;-83
2022/10/10 01:19:05;;;;;;;3.35;2.50;;;;;;;;;;5115923;28;20247;-83
2022/10/10 01:21:38;;;;;;;2.00;1.83;;;;;;;;;;5116460;28;20187;-83
2022/10/10 01:24:43;;;;;;;3.83;2.17;;;;;;;;;;5116172;28;20188;-83
2022/10/10 01:27:30;;;;;;;2.75;2.10;;;;;;;;;;5116761;28;20191;-83
2022/10/10 01:30:04;;;;;;;2.28;1.90;;;;;;;;;;5116738;28;20206;-83
2022/10/10 01:32:38;;;;;;;1.40;1.30;;;;;;;;;;5116828;28;20198;-82
2022/10/10 01:35:31;;;;;;;1.67;1.58;;;;;;;;;;5107275;28;20288;-82
2022/10/10 01:38:10;;;;;;;1.70;1.50;;;;;;;;;;5093127;28;20211;-83
2022/10/10 01:40:44;;;;;;;1.80;1.70;;;;;;;;;;5095175;28;20264;-82
2022/10/10 01:43:13;;;;;;;3.85;1.73;;;;;;;;;;5095919;28;20193;-83
2022/10/10 01:45:46;;;;;;;1.50;1.40;;;;;;;;;;5096123;28;20701;-83
2022/10/10 01:48:14;;;;;;;2.40;2.20;;;;;;;;;;5095686;28;20185;-83
2022/10/10 01:51:08;;;;;;;1.20;1.20;;;;;;;;;;5095682;28;20632;-82
2022/10/10 01:53:43;;;;;;;1.40;1.30;;;;;;;;;;5092525;28;20210;-83
2022/10/10 01:56:19;;;;;;;1.10;1.10;;;;;;;;;;5095522;28;20229;-83
2022/10/10 01:59:04;;;;;;;1.17;1.17;;;;;;;;;;5096238;28;20214;-83
2022/10/10 02:01:39;;;;;;;1.20;1.10;;;;;;;;;;5096430;28;20299;-82
2022/10/10 02:04:13;;;;;;;1.33;1.23;;;;;;;;;;5095783;28;20640;-81
2022/10/10 02:06:44;;;;;;;1.27;1.17;;;;;;;;;;5095905;28;20184;-83
2022/10/10 02:09:15;;;;;;;1.40;1.10;;;;;;;;;;5095409;28;20211;-83
2022/10/10 02:11:43;;;;;;;1.30;1.20;;;;;;;;;;5096058;28;20228;-83
2022/10/10 02:14:16;;;;;;;5.18;1.35;;;;;;;;;;5095571;28;20227;-82
2022/10/10 02:16:47;;;;;;;1.90;1.80;;;;;;;;;;5096093;28;20279;-83
2022/10/10 02:19:19;;;;;;;1.40;1.30;;;;;;;;;;5095110;28;20315;-83
2022/10/10 02:21:48;;;;;;;1.67;1.58;;;;;;;;;;5095314;28;20212;-82
2022/10/10 02:24:16;;;;;;;1.40;1.30;;;;;;;;;;5095492;28;20307;-83
2022/10/10 02:26:47;;;;;;;1.90;1.35;;;;;;;;;;5095668;28;20664;-83
2022/10/10 02:29:18;;;;;;;1.88;1.65;;;;;;;;;;5095297;28;20287;-81
2022/10/10 02:31:54;;;;;;;1.92;1.70;;;;;;;;;;5095414;28;20184;-82
2022/10/10 02:34:27;;;;;;;1.90;1.80;;;;;;;;;;5095042;28;20228;-82
2022/10/10 02:36:58;;;;;;;1.88;1.50;;;;;;;;;;5095632;28;20626;-82
2022/10/10 02:39:31;;;;;;;2.95;1.67;;;;;;;;;;5095217;28;20276;-82
2022/10/10 02:41:58;;;;;;;1.70;1.60;;;;;;;;;;5095442;28;20188;-83
2022/10/10 02:44:26;;;;;;;1.33;1.23;;;;;;;;;;5094733;28;20288;-83
2022/10/10 02:46:55;;;;;;;1.90;1.50;;;;;;;;;;5095467;28;20287;-83
2022/10/10 02:49:27;;;;;;;1.48;1.38;;;;;;;;;;5094887;28;20286;-83
2022/10/10 02:51:54;;;;;;;1.92;1.73;;;;;;;;;;5094951;28;20200;-83
2022/10/10 02:54:22;;;;;;;2.13;1.95;;;;;;;;;;5094424;28;20222;-84
2022/10/10 02:56:49;;;;;;;1.33;1.23;;;;;;;;;;5094625;28;20239;-83
2022/10/10 02:59:17;;;;;;;2.67;1.83;;;;;;;;;;5093978;28;20312;-83
2022/10/10 03:01:45;;;;;;;1.63;1.52;;;;;;;;;;5094859;28;20717;-82
2022/10/10 03:04:14;;;;;;;1.83;1.67;;;;;;;;;;5094204;28;20254;-83
2022/10/10 03:06:41;;;;;;;1.88;1.63;;;;;;;;;;5094337;28;20200;-83
2022/10/10 03:09:09;;;;;;;1.95;1.85;;;;;;;;;;5094491;28;20218;-83
2022/10/10 03:11:36;;;;;;;1.98;1.88;;;;;;;;;;5094746;28;20235;-83
2022/10/10 03:14:04;;;;;;;2.40;1.85;;;;;;;;;;5094860;28;20204;-82
2022/10/10 03:16:31;;;;;;;3.85;2.08;;;;;;;;;;5094635;28;20283;-83
2022/10/10 03:18:59;;;;;;;2.00;1.80;;;;;;;;;;5094062;28;20728;-82
2022/10/10 03:21:28;;;;;;;2.58;1.83;;;;;;;;;;5094883;28;20303;-83
2022/10/10 03:23:55;;;;;;;2.03;1.83;;;;;;;;;;5094711;28;20291;-82
2022/10/10 03:26:23;;;;;;;2.95;1.80;;;;;;;;;;5095012;28;20196;-83
2022/10/10 03:28:50;;;;;;;2.35;2.15;;;;;;;;;;5094748;28;20220;-82
2022/10/10 03:31:18;;;;;;;1.25;1.20;;;;;;;;;;5094853;28;20282;-82
2022/10/10 03:33:45;;;;;;;2.10;1.98;;;;;;;;;;5095022;28;20201;-83
2022/10/10 03:36:12;;;;;;;1.50;1.40;;;;;;;;;;5093537;28;20232;-82
2022/10/10 03:38:41;;;;;;;2.13;1.80;;;;;;;;;;5093860;28;20295;-82
2022/10/10 03:41:09;;;;;;;2.00;1.90;;;;;;;;;;5094324;28;20319;-83
2022/10/10 03:43:36;;;;;;;2.50;1.83;;;;;;;;;;5094047;28;20287;-83
2022/10/10 03:46:04;;;;;;;1.83;1.70;;;;;;;;;;5094520;28;20220;-82
2022/10/10 03:48:31;;;;;;;2.80;1.33;;;;;;;;;;5094487;28;20200;-82
2022/10/10 03:50:59;;;;;;;2.03;1.40;;;;;;;;;;5094501;28;20299;-83
2022/10/10 03:53:26;;;;;;;1.50;1.40;;;;;;;;;;5094279;28;20306;-84
2022/10/10 03:55:55;;;;;;;1.65;1.40;;;;;;;;;;5094009;28;20307;-83
2022/10/10 03:58:23;;;;;;;6.82;2.42;;;;;;;;;;5094339;28;20294;-83
2022/10/10 04:00:55;;;;;;;2.47;1.70;;;;;;;;;;5094591;28;20246;-83
2022/10/10 04:03:22;;;;;;;2.67;2.17;;;;;;;;;;5096917;28;20212;-81
2022/10/10 04:05:50;;;;;;;3.05;2.13;;;;;;;;;;5113745;28;20233;-83
2022/10/10 04:08:18;;;;;;;2.20;2.00;;;;;;;;;;5121419;28;20268;-81
2022/10/10 04:10:48;;;;;;;2.55;2.28;;;;;;;;;;5121731;28;20196;-81
2022/10/10 04:13:18;;;;;;;2.15;1.95;;;;;;;;;;5121443;28;20312;-80
2022/10/10 04:15:45;;;;;;;4.35;1.80;;;;;;;;;;5120985;28;20216;-81
2022/10/10 04:18:13;;;;;;;4.38;2.15;;;;;;;;;;5120562;28;20239;-81
2022/10/10 04:20:40;;;;;;;2.15;1.95;;;;;;;;;;5120139;28;20254;-82
2022/10/10 04:23:07;;;;;;;2.05;1.52;;;;;;;;;;5120801;28;20679;-81
2022/10/10 04:25:35;;;;;;;2.55;2.35;;;;;;;;;;5120895;28;20306;-81
2022/10/10 04:28:02;;;;;;;2.97;2.00;;;;;;;;;;5120789;28;20231;-81
2022/10/10 04:30:34;;;;;;;2.63;1.77;;;;;;;;;;5121167;28;20219;-81
2022/10/10 04:33:02;;;;;;;2.78;1.73;;;;;;;;;;5120674;28;20687;-80
2022/10/10 04:35:29;;;;;;;1.63;1.45;;;;;;;;;;5108266;28;20213;-80
2022/10/10 04:37:56;;;;;;;1.60;1.50;;;;;;;;;;5100545;28;20258;-80
2022/10/10 04:40:24;;;;;;;1.85;1.75;;;;;;;;;;5100889;28;20223;-80
2022/10/10 04:42:51;;;;;;;1.50;1.40;;;;;;;;;;5101736;28;20203;-80
2022/10/10 04:45:19;;;;;;;1.50;1.40;;;;;;;;;;5101324;28;20251;-82
2022/10/10 04:47:48;;;;;;;1.40;1.30;;;;;;;;;;5100658;28;20591;-80
2022/10/10 04:50:15;;;;;;;1.23;1.13;;;;;;;;;;5100835;28;20629;-80
2022/10/10 04:52:43;;;;;;;1.52;1.35;;;;;;;;;;5100171;28;20291;-81
2022/10/10 04:55:10;;;;;;;1.63;1.52;;;;;;;;;;5100252;28;20684;-82
2022/10/10 04:57:38;;;;;;;1.23;1.13;;;;;;;;;;5099726;28;20283;-81
2022/10/10 05:00:08;;;;;;;3.03;1.67;;;;;;;;;;5100294;28;20216;-81
2022/10/10 05:02:35;;;;;;;3.65;1.80;;;;;;;;;;5099926;28;20204;-80
2022/10/10 05:05:05;;;;;;;2.28;1.80;;;;;;;;;;5100151;28;20641;-81
2022/10/10 05:07:32;;;;;;;1.60;1.50;;;;;;;;;;5099186;28;20665;-80
2022/10/10 05:10:00;;;;;;;1.70;1.60;;;;;;;;;;5100021;28;20279;-81
2022/10/10 05:12:28;;;;;;;1.83;1.50;;;;;;;;;;5099380;28;20200;-80
2022/10/10 05:14:55;;;;;;;1.65;1.55;;;;;;;;;;5099698;28;20958;-81
2022/10/10 05:17:23;;;;;;;1.58;1.48;;;;;;;;;;5099246;28;20700;-81
2022/10/10 05:19:51;;;;;;;1.45;1.35;;;;;;;;;;5099511;28;20549;-81
2022/10/10 05:22:20;;;;;;;1.50;1.40;;;;;;;;;;5100647;28;20231;-81
2022/10/10 05:24:47;;;;;;;1.67;1.50;;;;;;;;;;5100344;28;20311;-81
2022/10/10 05:27:15;;;;;;;2.33;2.13;;;;;;;;;;5100715;28;20261;-81
2022/10/10 05:29:42;;;;;;;2.97;2.00;;;;;;;;;;5098751;28;20231;-80
2022/10/10 05:32:10;;;;;;;3.25;1.90;;;;;;;;;;5098519;28;20636;-80
2022/10/10 05:34:37;;;;;;;1.80;1.70;;;;;;;;;;5099396;28;20224;-80
2022/10/10 05:37:05;;;;;;;2.38;2.17;;;;;;;;;;5099541;28;20196;-80
2022/10/10 05:39:34;;;;;;;3.38;2.35;;;;;;;;;;5100201;28;20716;-80
2022/10/10 05:42:01;;;;;;;4.03;2.53;;;;;;;;;;5099640;28;20230;-80
2022/10/10 05:44:29;;;;;;;2.10;2.00;;;;;;;;;;5099993;28;20638;-80
2022/10/10 05:46:56;;;;;;;1.95;1.83;;;;;;;;;;5099667;28;20627;-81
2022/10/10 05:49:24;;;;;;;1.90;1.77;;;;;;;;;;5099682;28;20200;-81
2022/10/10 05:51:52;;;;;;;2.88;2.50;;;;;;;;;;5099017;28;20272;-80
2022/10/10 05:54:20;;;;;;;2.65;2.38;;;;;;;;;;5099422;28;20262;-81
2022/10/10 05:56:49;;;;;;;2.45;2.25;;;;;;;;;;5099080;28;20641;-80
2022/10/10 05:59:16;;;;;;;2.33;2.13;;;;;;;;;;5098078;28;20300;-80
2022/10/10 06:01:44;;;;;;;2.88;2.67;;;;;;;;;;5098484;28;20316;-81
2022/10/10 06:04:11;;;;;;;2.88;2.40;;;;;;;;;;5098235;28;20637;-80
2022/10/10 06:06:39;;;;;;;4.57;3.40;;;;;;;;;;5098260;28;20231;-80
2022/10/10 06:09:06;;;;;;;3.40;2.95;;;;;;;;;;5098088;28;20200;-81
2022/10/10 06:11:34;;;;;;;3.88;3.20;;;;;;;;;;5098135;28;20260;-80
2022/10/10 06:14:02;;;;;;;3.30;3.00;;;;;;;;;;5098275;28;20231;-80
2022/10/10 06:16:30;;;;;;;2.63;2.00;;;;;;;;;;5098238;28;20200;-82
2022/10/10 06:18:57;;;;;;;3.63;2.53;;;;;;;;;;5097915;28;20724;-81
2022/10/10 06:21:26;;;;;;;2.55;2.35;;;;;;;;;;5096770;28;20254;-82
2022/10/10 06:23:53;;;;;;;3.33;3.03;;;;;;;;;;5097719;28;20234;-83
2022/10/10 06:26:21;;;;;;;2.67;2.47;;;;;;;;;;5097102;28;20180;-82
2022/10/10 06:28:49;;;;;;;4.60;3.58;;;;;;;;;;5097226;28;20282;-82
2022/10/10 06:31:19;;;;;;;7.28;3.38;;;;;;;;;;5097708;28;20200;-82
2022/10/10 06:33:48;;;;;;;3.33;3.03;;;;;;;;;;5097641;28;20580;-81
2022/10/10 06:36:16;;;;;;;2.65;2.45;;;;;;;;;;5097807;28;20596;-80
2022/10/10 06:38:46;;;;;;;2.95;2.65;;;;;;;;;;5097238;28;20181;-80
2022/10/10 06:41:14;;;;;;;4.07;3.65;;;;;;;;;;5098000;28;20314;-80
2022/10/10 06:43:41;;;;;;;2.78;2.58;;;;;;;;;;5097629;28;20228;-79
2022/10/10 06:46:10;;;;;;;2.63;2.42;;;;;;;;;;5097611;28;20315;-80
2022/10/10 06:48:39;;;;;;;4.95;2.90;;;;;;;;;;5094534;28;20608;-80
2022/10/10 06:51:10;;;;;;;3.83;2.55;;;;;;;;;;5077010;28;20234;-79
2022/10/10 06:53:37;;;;;;;3.15;2.63;;;;;;;;;;5077845;28;20664;-80
2022/10/10 06:56:05;;;;;;;3.35;3.05;;;;;;;;;;5077034;28;20276;-80
2022/10/10 06:58:34;;;;;;;4.10;3.45;;;;;;;;;;5077953;28;20240;-81
2022/10/10 07:01:04;;;;;;;5.00;3.42;;;;;;;;;;5081660;28;20653;-81
2022/10/10 07:03:31;;;;;;;6.90;3.30;;;;;;;;;;5096188;28;20180;-81
2022/10/10 07:06:02;;;;;;;4.00;3.60;;;;;;;;;;5097376;28;20311;-80
2022/10/10 07:08:30;;;;;;;3.58;3.28;;;;;;;;;;5098066;28;20210;-81
2022/10/10 07:10:58;;;;;;;4.60;3.55;;;;;;;;;;5096844;28;20191;-81
2022/10/10 07:13:25;;;;;;;6.63;3.22;;;;;;;;;;5097184;28;20196;-80
2022/10/10 07:15:53;;;;;;;3.75;3.45;;;;;;;;;;5097522;28;20216;-78
2022/10/10 07:18:21;;;;;;;4.80;3.47;;;;;;;;;;5096873;28;20204;-79
2022/10/10 07:20:49;;;;;;;4.00;3.53;;;;;;;;;;5097639;28;20282;-79
2022/10/10 07:23:18;;;;;;;3.85;2.67;;;;;;;;;;5096666;28;20240;-79
2022/10/10 07:25:46;;;;;;;3.40;3.10;;;;;;;;;;5098557;28;20279;-82
2022/10/10 07:28:13;;;;;;;2.65;1.95;;;;;;;;;;5097446;28;20299;-80
2022/10/10 07:30:42;;;;;;;4.07;2.58;;;;;;;;;;5096462;28;20200;-81
2022/10/10 07:33:10;;;;;;;2.40;2.20;;;;;;;;;;5098549;28;20287;-81
2022/10/10 07:35:37;;;;;;;2.33;2.05;;;;;;;;;;5099519;28;20220;-80
2022/10/10 07:38:05;;;;;;;2.08;1.98;;;;;;;;;;5098601;28;20224;-80
2022/10/10 07:40:34;;;;;;;3.70;2.42;;;;;;;;;;5101173;28;20618;-79
2022/10/10 07:43:01;;;;;;;2.45;1.80;;;;;;;;;;5100229;28;20217;-80
2022/10/10 07:45:29;;;;;;;3.35;2.47;;;;;;;;;;5101196;28;20858;-79
2022/10/10 07:47:57;;;;;;;3.13;2.83;;;;;;;;;;5100874;28;20570;-80
2022/10/10 07:50:24;;;;;;;3.78;2.15;;;;;;;;;;5100395;28;20238;-80
2022/10/10 07:52:52;;;;;;;2.40;2.20;;;;;;;;;;5101395;28;20227;-79
2022/10/10 07:55:20;;;;;;;2.63;2.42;;;;;;;;;;5101239;28;20255;-79
2022/10/10 07:57:50;;;;;;;2.13;1.90;;;;;;;;;;5100831;28;20287;-79
2022/10/10 08:00:17;;;;;;;2.25;1.70;;;;;;;;;;5100423;28;20209;-79
2022/10/10 08:02:45;;;;;;;1.92;1.83;;;;;;;;;;5100662;28;20580;-81
2022/10/10 08:05:12;;;;;;;2.08;1.98;;;;;;;;;;5101122;28;20311;-80
2022/10/10 08:07:40;;;;;;;2.92;2.17;;;;;;;;;;5100312;28;20235;-80
2022/10/10 08:10:09;;;;;;;2.33;1.88;;;;;;;;;;5102145;28;20239;-80
2022/10/10 08:12:36;;;;;;;2.35;2.13;;;;;;;;;;5100950;28;20231;-80
2022/10/10 08:15:07;;;;;;;2.30;2.10;;;;;;;;;;5101005;28;20271;-80
2022/10/10 08:17:35;;;;;;;2.45;2.25;;;;;;;;;;5101681;28;20219;-80
2022/10/10 08:20:02;;;;;;;3.88;2.13;;;;;;;;;;5099721;28;20286;-80
2022/10/10 08:22:30;;;;;;;1.42;1.33;;;;;;;;;;5101588;28;20263;-80
2022/10/10 08:24:57;;;;;;;1.80;1.70;;;;;;;;;;5100132;28;20259;-80
2022/10/10 08:27:24;;;;;;;3.22;2.08;;;;;;;;;;5099581;28;20263;-80
2022/10/10 08:29:52;;;;;;;2.88;2.08;;;;;;;;;;5099405;28;20206;-81
2022/10/10 08:32:21;;;;;;;2.38;2.03;;;;;;;;;;5098680;28;20633;-81
2022/10/10 08:34:49;;;;;;;2.20;1.60;;;;;;;;;;5097766;28;20257;-81
2022/10/10 08:37:16;;;;;;;3.40;1.48;;;;;;;;;;5098886;28;20196;-81
2022/10/10 08:39:44;;;;;;;2.83;2.53;;;;;;;;;;5098731;28;20626;-81
2022/10/10 08:42:17;;;;;;;2.63;2.20;;;;;;;;;;5098340;28;20296;-81
2022/10/10 08:44:48;;;;;;;2.10;1.90;;;;;;;;;;5097855;28;20224;-81
2022/10/10 08:47:21;;;;;;;1.90;1.80;;;;;;;;;;5098504;28;20250;-81
2022/10/10 08:49:51;;;;;;;1.65;1.52;;;;;;;;;;5097080;28;20681;-81
2022/10/10 08:52:28;;;;;;;2.53;2.33;;;;;;;;;;5098129;28;20252;-81
2022/10/10 08:54:57;;;;;;;3.08;2.10;;;;;;;;;;5097614;28;20231;-81
2022/10/10 08:57:28;;;;;;;2.72;2.28;;;;;;;;;;5097804;28;20231;-81
2022/10/10 08:59:58;;;;;;;3.60;2.30;;;;;;;;;;5096305;28;20651;-81
2022/10/10 09:02:38;;;;;;;3.05;1.92;;;;;;;;;;5096837;28;20210;-82
2022/10/10 09:05:14;;;;;;;2.28;2.08;;;;;;;;;;5096424;28;20216;-81
2022/10/10 09:08:00;;;;;;;2.30;2.10;;;;;;;;;;5096440;28;20224;-80
2022/10/10 09:10:34;;;;;;;2.22;2.00;;;;;;;;;;5096914;28;20177;-80
2022/10/10 09:13:12;;;;;;;3.55;2.03;;;;;;;;;;5097107;28;20207;-80
2022/10/10 09:15:47;;;;;;;2.45;2.25;;;;;;;;;;5096725;28;20212;-82
2022/10/10 09:18:25;;;;;;;1.75;1.65;;;;;;;;;;5097013;28;20227;-81
2022/10/10 09:21:01;;;;;;;1.85;1.63;;;;;;;;;;5096968;28;20301;-81
2022/10/10 09:23:32;;;;;;;1.98;1.75;;;;;;;;;;5097506;28;20214;-81
2022/10/10 09:26:02;;;;;;;2.13;1.50;;;;;;;;;;5097044;28;20230;-80
2022/10/10 09:28:38;;;;;;;2.10;1.60;;;;;;;;;;5096996;28;20177;-81
2022/10/10 09:31:16;;;;;;;1.67;1.52;;;;;;;;;;5097606;28;20196;-82
2022/10/10 09:33:51;;;;;;;1.80;1.70;;;;;;;;;;5096637;28;20176;-80
2022/10/10 09:36:21;;;;;;;1.52;1.30;;;;;;;;;;5095598;28;20242;-81
2022/10/10 09:38:52;;;;;;;2.03;1.83;;;;;;;;;;5095395;28;20204;-80
2022/10/10 09:41:25;;;;;;;3.80;2.70;;;;;;;;;;5095844;28;20249;-81
2022/10/10 09:43:56;;;;;;;2.28;2.05;;;;;;;;;;5095872;28;20242;-80
2022/10/10 09:46:24;;;;;;;1.98;1.45;;;;;;;;;;5095293;28;20184;-81
2022/10/10 09:48:53;;;;;;;2.28;2.08;;;;;;;;;;5096455;28;20283;-81
2022/10/10 09:51:21;;;;;;;2.58;2.20;;;;;;;;;;5096424;28;20652;-81
2022/10/10 09:53:50;;;;;;;2.85;2.03;;;;;;;;;;5095662;28;20283;-81
2022/10/10 09:56:21;;;;;;;4.13;2.05;;;;;;;;;;5095576;28;20185;-82
2022/10/10 09:58:52;;;;;;;5.75;1.80;;;;;;;;;;5096640;28;20279;-82
2022/10/10 10:01:21;;;;;;;1.95;1.80;;;;;;;;;;5094826;28;20540;-81
2022/10/10 10:04:14;;;;;;;3.25;1.83;;;;;;;;;;5095748;28;20572;-82
2022/10/10 10:06:46;;;;;;;2.20;2.00;;;;;;;;;;5095354;28;20188;-80
2022/10/10 10:09:18;;;;;;;2.60;2.40;;;;;;;;;;5093886;28;20195;-81
2022/10/10 10:11:48;;;;;;;2.58;2.38;;;;;;;;;;5093475;28;20210;-81
2022/10/10 10:14:25;;;;;;;1.88;1.70;;;;;;;;;;5094287;28;20216;-81
2022/10/10 10:16:54;;;;;;;2.08;1.75;;;;;;;;;;5094289;28;20184;-80
2022/10/10 10:19:33;;;;;;;2.40;2.20;;;;;;;;;;5095040;28;20185;-85
2022/10/10 10:22:00;;;;;;;2.50;2.30;;;;;;;;;;5095303;28;20641;-80
2022/10/10 10:24:35;;;;;;;2.25;2.05;;;;;;;;;;5095546;28;20319;-82
2022/10/10 10:27:14;;;;;;;2.67;2.30;;;;;;;;;;5093692;28;20203;-82
2022/10/10 10:29:48;;;;;;;1.70;1.60;;;;;;;;;;5093265;28;20271;-81
2022/10/10 10:32:27;;;;;;;3.60;2.28;;;;;;;;;;5094000;28;20184;-80
2022/10/10 10:35:17;;;;;;;2.90;2.65;;;;;;;;;;5093259;28;20226;-80
2022/10/10 10:38:11;;;;;;;2.35;1.95;;;;;;;;;;5094631;28;20181;-82
2022/10/10 10:40:42;;;;;;;2.65;1.65;;;;;;;;;;5094022;28;20633;-80
2022/10/10 10:43:29;;;;;;;1.92;1.83;;;;;;;;;;5094023;28;20181;-80
2022/10/10 10:46:07;;;;;;;2.13;1.92;;;;;;;;;;5093444;28;20306;-79
2022/10/10 10:48:42;;;;;;;2.38;2.17;;;;;;;;;;5093027;28;20176;-80
2022/10/10 10:51:40;;;;;;;2.40;1.48;;;;;;;;;;5092930;28;20685;-82
2022/10/10 10:54:23;;;;;;;1.65;1.55;;;;;;;;;;5082375;28;20206;-81
2022/10/10 10:56:57;;;;;;;2.08;1.58;;;;;;;;;;5093142;28;20684;-82
2022/10/10 10:59:40;;;;;;;2.10;1.90;;;;;;;;;;5093355;28;20185;-84
2022/10/10 11:02:27;;;;;;;2.53;2.33;;;;;;;;;;5093298;28;20191;-82
2022/10/10 11:05:06;;;;;;;2.55;2.10;;;;;;;;;;5092708;28;20228;-83
2022/10/10 11:07:42;;;;;;;2.05;1.90;;;;;;;;;;5092994;28;20230;-83
2022/10/10 11:10:18;;;;;;;1.48;1.38;;;;;;;;;;5094210;28;20185;-82
2022/10/10 11:12:56;;;;;;;3.00;1.63;;;;;;;;;;5097246;28;20190;-83
2022/10/10 11:15:27;;;;;;;2.35;2.15;;;;;;;;;;5097982;28;20296;-80
2022/10/10 11:18:00;;;;;;;2.58;1.70;;;;;;;;;;5097374;28;20236;-81
2022/10/10 11:20:31;;;;;;;2.00;1.90;;;;;;;;;;5097541;28;20188;-81
2022/10/10 11:23:05;;;;;;;1.85;1.75;;;;;;;;;;5097110;28;20204;-81
2022/10/10 11:25:36;;;;;;;2.00;1.85;;;;;;;;;;5097254;28;20624;-83
2022/10/10 11:28:08;;;;;;;2.28;2.00;;;;;;;;;;5097809;28;20185;-83
2022/10/10 11:30:39;;;;;;;2.63;2.10;;;;;;;;;;5097291;28;20622;-82
2022/10/10 11:33:13;;;;;;;1.92;1.77;;;;;;;;;;5097677;28;20207;-82
2022/10/10 11:35:44;;;;;;;4.55;2.03;;;;;;;;;;5097923;28;20577;-82
2022/10/10 11:38:19;;;;;;;3.97;1.95;;;;;;;;;;5097933;28;20596;-82
2022/10/10 11:40:55;;;;;;;2.17;1.80;;;;;;;;;;5096976;28;20184;-83
2022/10/10 11:43:40;;;;;;;2.53;1.63;;;;;;;;;;5097599;28;20181;-82
2022/10/10 11:46:20;;;;;;;1.67;1.33;;;;;;;;;;5096959;28;20227;-82
2022/10/10 11:48:55;;;;;;;1.80;1.70;;;;;;;;;;5097549;28;20181;-81
2022/10/10 11:51:39;;;;;;;2.13;1.80;;;;;;;;;;5096544;28;20188;-82
2022/10/10 11:54:19;;;;;;;4.63;2.08;;;;;;;;;;5096866;28;20183;-81
2022/10/10 11:56:47;;;;;;;3.80;1.98;;;;;;;;;;5097012;28;20267;-81
2022/10/10 11:59:22;;;;;;;1.70;1.60;;;;;;;;;;5098170;28;20665;-83
2022/10/10 12:01:54;;;;;;;1.95;1.85;;;;;;;;;;5098098;28;20223;-82
2022/10/10 12:04:23;;;;;;;3.40;1.90;;;;;;;;;;5097230;28;20639;-80
2022/10/10 12:06:55;;;;;;;2.03;1.38;;;;;;;;;;5098763;28;20628;-82
2022/10/10 12:09:27;;;;;;;1.60;1.50;;;;;;;;;;5097809;28;20184;-81
2022/10/10 12:11:58;;;;;;;1.45;1.35;;;;;;;;;;5098517;28;20189;-80
2022/10/10 12:14:28;;;;;;;1.58;1.48;;;;;;;;;;5097244;28;20307;-82
2022/10/10 12:16:57;;;;;;;2.35;1.60;;;;;;;;;;5097413;28;20546;-81
2022/10/10 12:19:26;;;;;;;2.33;1.70;;;;;;;;;;5096768;28;20553;-85
2022/10/10 12:21:58;;;;;;;2.50;1.77;;;;;;;;;;5096512;28;20196;-82
2022/10/10 12:24:29;;;;;;;2.63;1.38;;;;;;;;;;5095883;28;20228;-82
2022/10/10 12:27:30;;;;;;;3.35;1.80;;;;;;;;;;5096841;28;20245;-83
2022/10/10 12:30:23;;;;;;;2.80;1.45;;;;;;;;;;5095316;28;20239;-81
2022/10/10 12:32:53;;;;;;;2.80;1.60;;;;;;;;;;5096686;28;20275;-81
2022/10/10 12:35:40;;;;;;;2.00;1.50;;;;;;;;;;5096221;28;20212;-81
2022/10/10 12:38:15;;;;;;;1.48;1.38;;;;;;;;;;5096447;28;20641;-81
2022/10/10 12:41:11;;;;;;;2.40;1.40;;;;;;;;;;5096221;28;20191;-81
2022/10/10 12:43:50;;;;;;;4.70;1.90;;;;;;;;;;5096547;28;20187;-82
2022/10/10 12:46:29;;;;;;;1.67;1.52;;;;;;;;;;5096723;28;20208;-83
2022/10/10 12:49:04;;;;;;;4.00;1.98;;;;;;;;;;5096230;28;20271;-81
2022/10/10 12:51:35;;;;;;;3.50;1.67;;;;;;;;;;5093306;28;20278;-81
2022/10/10 12:54:05;;;;;;;2.15;1.70;;;;;;;;;;5096967;28;20185;-82
2022/10/10 12:56:40;;;;;;;4.30;1.70;;;;;;;;;;5098274;28;20187;-81
2022/10/10 12:59:18;;;;;;;2.20;1.85;;;;;;;;;;5097921;28;20190;-80
2022/10/10 13:01:52;;;;;;;2.95;2.60;;;;;;;;;;5096108;28;20191;-83
2022/10/10 13:04:20;;;;;;;2.35;1.83;;;;;;;;;;5097309;28;20576;-83
2022/10/10 13:06:49;;;;;;;2.97;1.88;;;;;;;;;;5096210;28;20221;-81
2022/10/10 13:09:19;;;;;;;1.80;1.50;;;;;;;;;;5096757;28;20268;-81
2022/10/10 13:12:17;;;;;;;4.75;2.33;;;;;;;;;;5096967;28;20192;-83
2022/10/10 13:14:46;;;;;;;1.48;1.38;;;;;;;;;;5096514;28;20216;-81
2022/10/10 13:17:27;;;;;;;2.35;1.20;;;;;;;;;;5096504;28;20286;-82
2022/10/10 13:19:57;;;;;;;1.30;1.23;;;;;;;;;;5097956;28;20279;-82
2022/10/10 13:22:25;;;;;;;2.90;1.50;;;;;;;;;;5097277;28;20200;-82
2022/10/10 13:24:53;;;;;;;2.92;2.03;;;;;;;;;;5097573;28;20704;-83
2022/10/10 13:27:24;;;;;;;2.10;1.75;;;;;;;;;;5098279;28;20720;-82
2022/10/10 13:29:52;;;;;;;1.75;1.65;;;;;;;;;;5097499;28;20195;-80
2022/10/10 13:32:23;;;;;;;2.83;1.83;;;;;;;;;;5097546;28;20195;-82
2022/10/10 13:34:55;;;;;;;1.90;1.80;;;;;;;;;;5099644;28;20306;-81
2022/10/10 13:37:22;;;;;;;2.83;1.70;;;;;;;;;;5098966;28;20188;-81
2022/10/10 13:39:51;;;;;;;4.50;2.47;;;;;;;;;;5098260;28;20287;-82
2022/10/10 13:42:33;;;;;;;2.22;1.33;;;;;;;;;;5098534;28;20321;-82
2022/10/10 13:45:04;;;;;;;3.90;1.70;;;;;;;;;;5098358;28;20311;-84
2022/10/10 13:47:51;;;;;;;3.85;2.80;;;;;;;;;;5097742;28;20181;-83
2022/10/10 13:50:24;;;;;;;3.17;1.50;;;;;;;;;;5098110;28;20188;-84
2022/10/10 13:53:07;;;;;;;1.60;1.50;;;;;;;;;;5097319;28;20271;-83
2022/10/10 13:55:38;;;;;;;1.40;1.30;;;;;;;;;;5097335;28;20242;-83
2022/10/10 13:58:09;;;;;;;2.58;1.67;;;;;;;;;;5098328;28;20184;-82
2022/10/10 14:00:39;;;;;;;3.08;1.58;;;;;;;;;;5098435;28;20267;-84
2022/10/10 14:03:15;;;;;;;2.67;1.40;;;;;;;;;;5098284;28;20246;-83
2022/10/10 14:05:44;;;;;;;2.88;1.85;;;;;;;;;;5098275;28;20250;-83
2022/10/10 14:08:15;;;;;;;1.92;1.50;;;;;;;;;;5097976;28;20202;-82
2022/10/10 14:10:42;;;;;;;2.10;1.85;;;;;;;;;;5097940;28;20296;-81
2022/10/10 14:13:18;;;;;;;2.45;1.45;;;;;;;;;;5097676;28;20210;-83
2022/10/10 14:15:46;;;;;;;2.13;1.45;;;;;;;;;;5098216;28;20216;-82
2022/10/10 14:18:19;;;;;;;2.30;1.70;;;;;;;;;;5098264;28;20243;-83
2022/10/10 14:20:47;;;;;;;2.15;1.63;;;;;;;;;;5099967;28;20198;-81
2022/10/10 14:23:16;;;;;;;2.03;1.83;;;;;;;;;;5099516;28;20622;-81
2022/10/10 14:25:47;;;;;;;1.38;1.27;;;;;;;;;;5098832;28;20228;-81
2022/10/10 14:28:19;;;;;;;1.63;1.30;;;;;;;;;;5099954;28;20188;-83
2022/10/10 14:30:47;;;;;;;1.45;1.35;;;;;;;;;;5100413;28;20199;-81
2022/10/10 14:33:17;;;;;;;3.67;2.10;;;;;;;;;;5100323;28;20590;-81
2022/10/10 14:35:47;;;;;;;3.42;1.40;;;;;;;;;;5099212;28;20325;-81
2022/10/10 14:38:15;;;;;;;1.38;1.27;;;;;;;;;;5098786;28;20212;-80
2022/10/10 14:40:45;;;;;;;3.70;1.27;;;;;;;;;;5099313;28;20207;-82
2022/10/10 14:43:13;;;;;;;1.40;1.10;;;;;;;;;;5100462;28;20629;-82
2022/10/10 14:45:42;;;;;;;1.55;1.45;;;;;;;;;;5097988;28;20227;-83
2022/10/10 14:48:11;;;;;;;1.45;1.20;;;;;;;;;;5100101;28;20215;-83
2022/10/10 14:50:43;;;;;;;1.90;1.55;;;;;;;;;;5098355;28;20192;-83
2022/10/10 14:53:11;;;;;;;1.88;1.50;;;;;;;;;;5100196;28;20192;-82
2022/10/10 14:55:42;;;;;;;1.48;1.38;;;;;;;;;;5099837;28;20219;-82
2022/10/10 14:58:12;;;;;;;3.08;2.13;;;;;;;;;;5099450;28;20189;-82
2022/10/10 15:00:41;;;;;;;2.55;1.90;;;;;;;;;;5098167;28;20261;-80
2022/10/10 15:03:08;;;;;;;1.52;1.42;;;;;;;;;;5100168;28;20187;-82
2022/10/10 15:05:36;;;;;;;3.80;1.70;;;;;;;;;;5098927;28;20371;-80
2022/10/10 15:08:03;;;;;;;1.77;1.67;;;;;;;;;;5101818;28;20250;-82